sensor_id;sensor_type;location;lat;lon;timestamp;temperature;humidity
9658;DHT22;4867;48.112;11.622;2023-06-14T00:01:03;13.70;93.60
9658;DHT22;4867;48.112;11.622;2023-06-14T00:03:36;13.70;94.30
9658;DHT22;4867;48.112;11.622;2023-06-14T00:06:06;13.60;94.40
9658;DHT22;4867;48.112;11.622;2023-06-14T00:08:33;13.50;94.50
9658;DHT22;4867;48.112;11.622;2023-06-14T00:11:04;13.40;95.30
9658;DHT22;4867;48.112;11.622;2023-06-14T00:13:31;13.40;95.50
9658;DHT22;4867;48.112;11.622;2023-06-14T00:15:59;13.30;95.60
9658;DHT22;4867;48.112;11.622;2023-06-14T00:18:28;13.20;96.10
9658;DHT22;4867;48.112;11.622;2023-06-14T00:24:28;13.10;96.40
9658;DHT22;4867;48.112;11.622;2023-06-14T00:27:09;13.20;96.90
9658;DHT22;4867;48.112;11.622;2023-06-14T00:29:41;13.10;97.40
9658;DHT22;4867;48.112;11.622;2023-06-14T00:32:30;13.10;97.70
9658;DHT22;4867;48.112;11.622;2023-06-14T00:35:15;13.00;97.80
9658;DHT22;4867;48.112;11.622;2023-06-14T00:37:58;13.00;97.90
9658;DHT22;4867;48.112;11.622;2023-06-14T00:40:42;12.90;98.40
9658;DHT22;4867;48.112;11.622;2023-06-14T00:43:13;12.90;98.80
9658;DHT22;4867;48.112;11.622;2023-06-14T00:45:44;12.80;99.00
9658;DHT22;4867;48.112;11.622;2023-06-14T00:48:14;12.80;99.30
9658;DHT22;4867;48.112;11.622;2023-06-14T00:50:43;12.80;99.50
9658;DHT22;4867;48.112;11.622;2023-06-14T00:53:13;12.80;99.90
9658;DHT22;4867;48.112;11.622;2023-06-14T00:55:44;12.70;99.90
9658;DHT22;4867;48.112;11.622;2023-06-14T00:58:12;12.60;99.90
9658;DHT22;4867;48.112;11.622;2023-06-14T01:00:41;12.60;99.90
9658;DHT22;4867;48.112;11.622;2023-06-14T01:03:09;12.60;99.90
9658;DHT22;4867;48.112;11.622;2023-06-14T01:05:42;12.60;99.90
9658;DHT22;4867;48.112;11.622;2023-06-14T01:08:19;12.60;99.90
9658;DHT22;4867;48.112;11.622;2023-06-14T01:11:10;12.50;99.90
9658;DHT22;4867;48.112;11.622;2023-06-14T01:13:42;12.50;99.90
9658;DHT22;4867;48.112;11.622;2023-06-14T01:16:11;12.50;99.90
9658;DHT22;4867;48.112;11.622;2023-06-14T01:18:39;12.40;99.90
9658;DHT22;4867;48.112;11.622;2023-06-14T01:21:22;12.40;99.90
9658;DHT22;4867;48.112;11.622;2023-06-14T01:23:51;12.40;99.90
9658;DHT22;4867;48.112;11.622;2023-06-14T01:26:26;12.30;99.90
9658;DHT22;4867;48.112;11.622;2023-06-14T01:29:01;12.30;99.90
9658;DHT22;4867;48.112;11.622;2023-06-14T01:31:33;12.20;99.90
9658;DHT22;4867;48.112;11.622;2023-06-14T01:34:09;12.20;99.90
9658;DHT22;4867;48.112;11.622;2023-06-14T01:36:41;12.20;99.90
9658;DHT22;4867;48.112;11.622;2023-06-14T01:39:11;12.10;99.90
9658;DHT22;4867;48.112;11.622;2023-06-14T01:41:41;12.00;99.90
9658;DHT22;4867;48.112;11.622;2023-06-14T01:44:10;12.00;99.90
9658;DHT22;4867;48.112;11.622;2023-06-14T01:46:39;12.00;99.90
9658;DHT22;4867;48.112;11.622;2023-06-14T01:49:07;12.00;99.90
9658;DHT22;4867;48.112;11.622;2023-06-14T01:51:35;11.90;99.90
9658;DHT22;4867;48.112;11.622;2023-06-14T01:54:02;11.90;99.90
9658;DHT22;4867;48.112;11.622;2023-06-14T01:56:31;11.80;99.90
9658;DHT22;4867;48.112;11.622;2023-06-14T01:59:00;11.80;99.90
9658;DHT22;4867;48.112;11.622;2023-06-14T02:01:27;11.70;99.90
9658;DHT22;4867;48.112;11.622;2023-06-14T02:03:55;11.70;99.90
9658;DHT22;4867;48.112;11.622;2023-06-14T02:06:24;11.60;99.90
9658;DHT22;4867;48.112;11.622;2023-06-14T02:08:53;11.60;99.90
9658;DHT22;4867;48.112;11.622;2023-06-14T02:11:21;11.50;99.90
9658;DHT22;4867;48.112;11.622;2023-06-14T02:13:50;11.50;99.90
9658;DHT22;4867;48.112;11.622;2023-06-14T02:16:18;11.40;99.90
9658;DHT22;4867;48.112;11.622;2023-06-14T02:18:45;11.40;99.90
9658;DHT22;4867;48.112;11.622;2023-06-14T02:21:13;11.30;99.90
9658;DHT22;4867;48.112;11.622;2023-06-14T02:23:40;11.30;99.90
9658;DHT22;4867;48.112;11.622;2023-06-14T02:26:08;11.30;99.90
9658;DHT22;4867;48.112;11.622;2023-06-14T02:28:35;11.20;99.90
9658;DHT22;4867;48.112;11.622;2023-06-14T02:31:03;11.20;99.90
9658;DHT22;4867;48.112;11.622;2023-06-14T02:33:30;11.10;99.90
9658;DHT22;4867;48.112;11.622;2023-06-14T02:35:58;11.10;99.90
9658;DHT22;4867;48.112;11.622;2023-06-14T02:38:26;11.00;99.90
9658;DHT22;4867;48.112;11.622;2023-06-14T02:40:53;11.00;99.90
9658;DHT22;4867;48.112;11.622;2023-06-14T02:43:21;11.00;99.90
9658;DHT22;4867;48.112;11.622;2023-06-14T02:45:48;11.00;99.90
9658;DHT22;4867;48.112;11.622;2023-06-14T02:48:17;11.00;99.90
9658;DHT22;4867;48.112;11.622;2023-06-14T02:50:44;11.00;99.90
9658;DHT22;4867;48.112;11.622;2023-06-14T02:53:11;11.00;99.90
9658;DHT22;4867;48.112;11.622;2023-06-14T02:55:39;11.00;99.90
9658;DHT22;4867;48.112;11.622;2023-06-14T02:58:08;11.00;99.90
9658;DHT22;4867;48.112;11.622;2023-06-14T03:00:36;11.00;99.90
9658;DHT22;4867;48.112;11.622;2023-06-14T03:03:07;10.90;99.90
9658;DHT22;4867;48.112;11.622;2023-06-14T03:05:46;10.90;99.90
9658;DHT22;4867;48.112;11.622;2023-06-14T03:08:17;10.90;99.90
9658;DHT22;4867;48.112;11.622;2023-06-14T03:10:50;10.90;99.90
9658;DHT22;4867;48.112;11.622;2023-06-14T03:13:18;10.80;99.90
9658;DHT22;4867;48.112;11.622;2023-06-14T03:15:51;10.80;99.90
9658;DHT22;4867;48.112;11.622;2023-06-14T03:18:21;10.80;99.90
9658;DHT22;4867;48.112;11.622;2023-06-14T03:20:54;10.70;99.90
9658;DHT22;4867;48.112;11.622;2023-06-14T03:23:25;10.70;99.90
9658;DHT22;4867;48.112;11.622;2023-06-14T03:25:53;10.70;99.90
9658;DHT22;4867;48.112;11.622;2023-06-14T03:28:21;10.80;99.90
9658;DHT22;4867;48.112;11.622;2023-06-14T03:30:50;10.90;99.90
9658;DHT22;4867;48.112;11.622;2023-06-14T03:33:17;10.80;99.90
9658;DHT22;4867;48.112;11.622;2023-06-14T03:35:44;10.80;99.90
9658;DHT22;4867;48.112;11.622;2023-06-14T03:38:13;10.80;99.90
9658;DHT22;4867;48.112;11.622;2023-06-14T03:40:40;10.80;99.90
9658;DHT22;4867;48.112;11.622;2023-06-14T03:43:08;10.90;99.90
9658;DHT22;4867;48.112;11.622;2023-06-14T03:45:35;11.30;99.90
9658;DHT22;4867;48.112;11.622;2023-06-14T03:48:03;11.80;99.90
9658;DHT22;4867;48.112;11.622;2023-06-14T03:50:31;12.40;99.90
9658;DHT22;4867;48.112;11.622;2023-06-14T03:52:59;12.90;99.90
9658;DHT22;4867;48.112;11.622;2023-06-14T03:55:28;13.40;99.90
9658;DHT22;4867;48.112;11.622;2023-06-14T03:58:02;13.90;99.90
9658;DHT22;4867;48.112;11.622;2023-06-14T04:00:30;14.30;99.90
9658;DHT22;4867;48.112;11.622;2023-06-14T04:02:57;14.60;99.90
9658;DHT22;4867;48.112;11.622;2023-06-14T04:05:30;14.90;99.90
9658;DHT22;4867;48.112;11.622;2023-06-14T04:07:58;15.10;99.90
9658;DHT22;4867;48.112;11.622;2023-06-14T04:10:31;15.60;99.90
9658;DHT22;4867;48.112;11.622;2023-06-14T04:12:59;15.70;99.90
9658;DHT22;4867;48.112;11.622;2023-06-14T04:15:26;15.90;99.90
9658;DHT22;4867;48.112;11.622;2023-06-14T04:17:56;15.80;99.90
9658;DHT22;4867;48.112;11.622;2023-06-14T04:20:25;15.90;99.90
9658;DHT22;4867;48.112;11.622;2023-06-14T04:22:53;16.00;99.90
9658;DHT22;4867;48.112;11.622;2023-06-14T04:25:22;15.90;99.90
9658;DHT22;4867;48.112;11.622;2023-06-14T04:27:51;15.90;99.90
9658;DHT22;4867;48.112;11.622;2023-06-14T04:30:20;15.70;99.90
9658;DHT22;4867;48.112;11.622;2023-06-14T04:32:50;15.60;99.90
9658;DHT22;4867;48.112;11.622;2023-06-14T04:35:21;15.50;99.90
9658;DHT22;4867;48.112;11.622;2023-06-14T04:37:50;15.40;99.90
9658;DHT22;4867;48.112;11.622;2023-06-14T04:40:19;15.30;99.90
9658;DHT22;4867;48.112;11.622;2023-06-14T04:42:47;15.20;99.90
9658;DHT22;4867;48.112;11.622;2023-06-14T04:45:17;15.10;99.90
9658;DHT22;4867;48.112;11.622;2023-06-14T04:47:46;15.10;99.90
9658;DHT22;4867;48.112;11.622;2023-06-14T04:50:13;15.10;99.90
9658;DHT22;4867;48.112;11.622;2023-06-14T04:52:43;15.10;99.90
9658;DHT22;4867;48.112;11.622;2023-06-14T04:55:10;15.20;99.90
9658;DHT22;4867;48.112;11.622;2023-06-14T04:57:38;15.40;99.90
9658;DHT22;4867;48.112;11.622;2023-06-14T05:00:06;15.60;99.90
9658;DHT22;4867;48.112;11.622;2023-06-14T05:02:34;15.90;99.90
9658;DHT22;4867;48.112;11.622;2023-06-14T05:05:04;16.30;99.90
9658;DHT22;4867;48.112;11.622;2023-06-14T05:07:35;16.90;99.90
9658;DHT22;4867;48.112;11.622;2023-06-14T05:10:02;17.50;99.90
9658;DHT22;4867;48.112;11.622;2023-06-14T05:12:30;18.00;99.90
9658;DHT22;4867;48.112;11.622;2023-06-14T05:14:58;18.40;99.80
9658;DHT22;4867;48.112;11.622;2023-06-14T05:17:26;18.60;99.00
9658;DHT22;4867;48.112;11.622;2023-06-14T05:19:55;18.90;98.30
9658;DHT22;4867;48.112;11.622;2023-06-14T05:22:23;19.00;97.80
9658;DHT22;4867;48.112;11.622;2023-06-14T05:24:50;19.00;96.80
9658;DHT22;4867;48.112;11.622;2023-06-14T05:27:17;19.00;96.70
9658;DHT22;4867;48.112;11.622;2023-06-14T05:29:45;18.70;96.00
9658;DHT22;4867;48.112;11.622;2023-06-14T05:32:12;18.40;95.80
9658;DHT22;4867;48.112;11.622;2023-06-14T05:34:40;18.00;95.90
9658;DHT22;4867;48.112;11.622;2023-06-14T05:37:07;17.80;96.10
9658;DHT22;4867;48.112;11.622;2023-06-14T05:39:35;17.60;96.40
9658;DHT22;4867;48.112;11.622;2023-06-14T05:42:02;17.50;96.80
9658;DHT22;4867;48.112;11.622;2023-06-14T05:44:29;17.30;96.90
9658;DHT22;4867;48.112;11.622;2023-06-14T05:46:57;17.10;96.80
9658;DHT22;4867;48.112;11.622;2023-06-14T05:49:24;17.10;97.20
9658;DHT22;4867;48.112;11.622;2023-06-14T05:51:51;17.00;97.30
9658;DHT22;4867;48.112;11.622;2023-06-14T05:54:19;16.90;97.40
9658;DHT22;4867;48.112;11.622;2023-06-14T05:56:46;16.90;97.70
9658;DHT22;4867;48.112;11.622;2023-06-14T05:59:13;16.90;97.90
9658;DHT22;4867;48.112;11.622;2023-06-14T06:01:40;16.90;97.70
9658;DHT22;4867;48.112;11.622;2023-06-14T06:04:08;16.90;98.00
9658;DHT22;4867;48.112;11.622;2023-06-14T06:06:35;17.00;97.70
9658;DHT22;4867;48.112;11.622;2023-06-14T06:09:02;17.00;97.70
9658;DHT22;4867;48.112;11.622;2023-06-14T06:11:30;17.00;97.70
9658;DHT22;4867;48.112;11.622;2023-06-14T06:14:14;17.00;97.90
9658;DHT22;4867;48.112;11.622;2023-06-14T06:16:42;17.00;97.90
9658;DHT22;4867;48.112;11.622;2023-06-14T06:19:09;17.00;97.70
9658;DHT22;4867;48.112;11.622;2023-06-14T06:21:36;17.10;97.90
9658;DHT22;4867;48.112;11.622;2023-06-14T06:24:05;17.10;97.80
9658;DHT22;4867;48.112;11.622;2023-06-14T06:26:33;17.20;97.70
9658;DHT22;4867;48.112;11.622;2023-06-14T06:29:00;17.30;97.40
9658;DHT22;4867;48.112;11.622;2023-06-14T06:31:27;17.30;97.70
9658;DHT22;4867;48.112;11.622;2023-06-14T06:33:55;17.50;97.70
9658;DHT22;4867;48.112;11.622;2023-06-14T06:36:22;17.40;97.70
9658;DHT22;4867;48.112;11.622;2023-06-14T06:38:50;17.50;97.80
9658;DHT22;4867;48.112;11.622;2023-06-14T06:41:18;17.60;97.90
9658;DHT22;4867;48.112;11.622;2023-06-14T06:43:46;17.80;97.30
9658;DHT22;4867;48.112;11.622;2023-06-14T06:46:16;17.90;97.40
9658;DHT22;4867;48.112;11.622;2023-06-14T06:48:45;18.00;96.90
9658;DHT22;4867;48.112;11.622;2023-06-14T06:51:12;18.20;97.60
9658;DHT22;4867;48.112;11.622;2023-06-14T06:53:42;18.30;97.30
9658;DHT22;4867;48.112;11.622;2023-06-14T06:56:10;18.60;97.10
9658;DHT22;4867;48.112;11.622;2023-06-14T06:58:37;18.40;96.70
9658;DHT22;4867;48.112;11.622;2023-06-14T07:01:04;18.50;97.10
9658;DHT22;4867;48.112;11.622;2023-06-14T07:03:35;18.60;96.80
9658;DHT22;4867;48.112;11.622;2023-06-14T07:06:03;18.80;97.10
9658;DHT22;4867;48.112;11.622;2023-06-14T07:08:30;18.90;96.80
9658;DHT22;4867;48.112;11.622;2023-06-14T07:10:57;18.90;96.30
9658;DHT22;4867;48.112;11.622;2023-06-14T07:13:25;18.90;96.30
9658;DHT22;4867;48.112;11.622;2023-06-14T07:15:54;19.00;96.20
9658;DHT22;4867;48.112;11.622;2023-06-14T07:18:24;19.10;96.00
9658;DHT22;4867;48.112;11.622;2023-06-14T07:20:51;19.10;95.90
9658;DHT22;4867;48.112;11.622;2023-06-14T07:23:19;19.10;95.20
9658;DHT22;4867;48.112;11.622;2023-06-14T07:25:47;19.10;95.20
9658;DHT22;4867;48.112;11.622;2023-06-14T07:28:14;19.20;95.00
9658;DHT22;4867;48.112;11.622;2023-06-14T07:30:41;19.30;94.80
9658;DHT22;4867;48.112;11.622;2023-06-14T07:33:09;19.40;95.10
9658;DHT22;4867;48.112;11.622;2023-06-14T07:35:37;19.40;94.40
9658;DHT22;4867;48.112;11.622;2023-06-14T07:38:07;19.50;94.70
9658;DHT22;4867;48.112;11.622;2023-06-14T07:40:35;19.70;94.40
9658;DHT22;4867;48.112;11.622;2023-06-14T07:43:02;19.80;94.10
9658;DHT22;4867;48.112;11.622;2023-06-14T07:45:29;19.90;93.50
9658;DHT22;4867;48.112;11.622;2023-06-14T07:47:57;19.80;93.30
9658;DHT22;4867;48.112;11.622;2023-06-14T07:50:24;20.00;93.10
9658;DHT22;4867;48.112;11.622;2023-06-14T07:52:52;20.10;93.20
9658;DHT22;4867;48.112;11.622;2023-06-14T07:55:19;20.10;92.60
9658;DHT22;4867;48.112;11.622;2023-06-14T07:57:46;20.30;92.10
9658;DHT22;4867;48.112;11.622;2023-06-14T08:00:14;20.30;90.90
9658;DHT22;4867;48.112;11.622;2023-06-14T08:02:43;20.30;91.00
9658;DHT22;4867;48.112;11.622;2023-06-14T08:05:11;20.30;90.00
9658;DHT22;4867;48.112;11.622;2023-06-14T08:07:40;20.40;90.00
9658;DHT22;4867;48.112;11.622;2023-06-14T08:10:08;20.40;90.40
9658;DHT22;4867;48.112;11.622;2023-06-14T08:12:36;20.50;86.40
9658;DHT22;4867;48.112;11.622;2023-06-14T08:15:04;20.60;89.10
9658;DHT22;4867;48.112;11.622;2023-06-14T08:17:43;20.70;88.00
9658;DHT22;4867;48.112;11.622;2023-06-14T08:20:12;20.80;84.70
9658;DHT22;4867;48.112;11.622;2023-06-14T08:22:40;20.90;84.50
9658;DHT22;4867;48.112;11.622;2023-06-14T08:25:09;21.00;84.60
9658;DHT22;4867;48.112;11.622;2023-06-14T08:27:39;21.20;85.10
9658;DHT22;4867;48.112;11.622;2023-06-14T08:30:08;21.50;85.20
9658;DHT22;4867;48.112;11.622;2023-06-14T08:32:35;21.60;81.80
9658;DHT22;4867;48.112;11.622;2023-06-14T08:35:03;21.70;82.20
9658;DHT22;4867;48.112;11.622;2023-06-14T08:37:32;21.80;79.70
9658;DHT22;4867;48.112;11.622;2023-06-14T08:40:00;21.80;79.50
9658;DHT22;4867;48.112;11.622;2023-06-14T08:42:32;21.90;77.50
9658;DHT22;4867;48.112;11.622;2023-06-14T08:44:59;21.80;75.60
9658;DHT22;4867;48.112;11.622;2023-06-14T08:47:27;21.70;76.30
9658;DHT22;4867;48.112;11.622;2023-06-14T08:49:57;21.80;76.10
9658;DHT22;4867;48.112;11.622;2023-06-14T08:52:27;21.90;76.40
9658;DHT22;4867;48.112;11.622;2023-06-14T08:54:57;21.90;76.40
9658;DHT22;4867;48.112;11.622;2023-06-14T08:57:26;21.90;74.70
9658;DHT22;4867;48.112;11.622;2023-06-14T08:59:57;21.90;75.60
9658;DHT22;4867;48.112;11.622;2023-06-14T09:05:34;22.10;75.80
9658;DHT22;4867;48.112;11.622;2023-06-14T09:08:02;22.40;77.30
9658;DHT22;4867;48.112;11.622;2023-06-14T09:10:33;22.40;73.90
9658;DHT22;4867;48.112;11.622;2023-06-14T09:13:05;22.20;72.40
9658;DHT22;4867;48.112;11.622;2023-06-14T09:15:37;22.20;73.20
9658;DHT22;4867;48.112;11.622;2023-06-14T09:18:04;22.30;73.10
9658;DHT22;4867;48.112;11.622;2023-06-14T09:20:33;22.30;74.00
9658;DHT22;4867;48.112;11.622;2023-06-14T09:23:01;22.30;73.90
9658;DHT22;4867;48.112;11.622;2023-06-14T09:25:29;22.40;74.10
9658;DHT22;4867;48.112;11.622;2023-06-14T09:28:09;22.60;76.20
9658;DHT22;4867;48.112;11.622;2023-06-14T09:30:38;22.80;74.90
9658;DHT22;4867;48.112;11.622;2023-06-14T09:33:05;23.00;75.70
9658;DHT22;4867;48.112;11.622;2023-06-14T09:35:33;23.20;75.10
9658;DHT22;4867;48.112;11.622;2023-06-14T09:38:01;23.40;73.80
9658;DHT22;4867;48.112;11.622;2023-06-14T09:40:28;23.30;73.00
9658;DHT22;4867;48.112;11.622;2023-06-14T09:43:00;22.90;72.50
9658;DHT22;4867;48.112;11.622;2023-06-14T09:45:27;22.60;73.50
9658;DHT22;4867;48.112;11.622;2023-06-14T09:47:58;22.50;74.30
9658;DHT22;4867;48.112;11.622;2023-06-14T09:50:28;22.60;73.50
9658;DHT22;4867;48.112;11.622;2023-06-14T09:52:59;22.70;73.70
9658;DHT22;4867;48.112;11.622;2023-06-14T09:55:31;22.60;74.00
9658;DHT22;4867;48.112;11.622;2023-06-14T09:58:04;22.40;73.70
9658;DHT22;4867;48.112;11.622;2023-06-14T10:00:35;22.30;73.70
9658;DHT22;4867;48.112;11.622;2023-06-14T10:03:16;22.20;74.30
9658;DHT22;4867;48.112;11.622;2023-06-14T10:05:47;22.30;73.10
9658;DHT22;4867;48.112;11.622;2023-06-14T10:08:18;22.00;73.00
9658;DHT22;4867;48.112;11.622;2023-06-14T10:10:45;21.80;72.90
9658;DHT22;4867;48.112;11.622;2023-06-14T10:13:14;21.60;73.20
9658;DHT22;4867;48.112;11.622;2023-06-14T10:24:07;21.80;71.70
9658;DHT22;4867;48.112;11.622;2023-06-14T10:26:38;21.90;72.30
9658;DHT22;4867;48.112;11.622;2023-06-14T10:40:52;21.70;71.20
9658;DHT22;4867;48.112;11.622;2023-06-14T10:43:21;21.90;72.70
9658;DHT22;4867;48.112;11.622;2023-06-14T10:48:46;22.30;72.90
9658;DHT22;4867;48.112;11.622;2023-06-14T10:51:20;22.40;73.20
9658;DHT22;4867;48.112;11.622;2023-06-14T10:53:49;22.40;72.40
9658;DHT22;4867;48.112;11.622;2023-06-14T10:56:49;22.30;72.30
9658;DHT22;4867;48.112;11.622;2023-06-14T10:59:18;22.50;71.20
9658;DHT22;4867;48.112;11.622;2023-06-14T11:04:52;22.80;71.40
9658;DHT22;4867;48.112;11.622;2023-06-14T11:10:44;22.60;73.50
9658;DHT22;4867;48.112;11.622;2023-06-14T11:13:16;22.60;74.00
9658;DHT22;4867;48.112;11.622;2023-06-14T11:15:45;22.90;74.40
9658;DHT22;4867;48.112;11.622;2023-06-14T11:18:14;23.00;74.10
9658;DHT22;4867;48.112;11.622;2023-06-14T11:20:46;22.90;72.10
9658;DHT22;4867;48.112;11.622;2023-06-14T11:23:14;22.80;72.70
9658;DHT22;4867;48.112;11.622;2023-06-14T11:25:42;22.70;72.70
9658;DHT22;4867;48.112;11.622;2023-06-14T11:28:12;22.80;72.30
9658;DHT22;4867;48.112;11.622;2023-06-14T11:30:39;22.90;72.40
9658;DHT22;4867;48.112;11.622;2023-06-14T11:33:10;23.00;71.50
9658;DHT22;4867;48.112;11.622;2023-06-14T11:35:38;23.20;71.70
9658;DHT22;4867;48.112;11.622;2023-06-14T11:38:06;23.40;70.30
9658;DHT22;4867;48.112;11.622;2023-06-14T11:40:33;23.50;71.30
9658;DHT22;4867;48.112;11.622;2023-06-14T11:43:02;23.50;68.50
9658;DHT22;4867;48.112;11.622;2023-06-14T11:45:29;23.40;67.90
9658;DHT22;4867;48.112;11.622;2023-06-14T11:47:58;23.20;69.20
9658;DHT22;4867;48.112;11.622;2023-06-14T11:50:26;23.00;70.20
9658;DHT22;4867;48.112;11.622;2023-06-14T11:52:59;23.20;69.30
9658;DHT22;4867;48.112;11.622;2023-06-14T11:55:31;23.40;68.40
9658;DHT22;4867;48.112;11.622;2023-06-14T11:57:58;23.60;68.20
9658;DHT22;4867;48.112;11.622;2023-06-14T12:00:26;23.60;67.30
9658;DHT22;4867;48.112;11.622;2023-06-14T12:02:55;23.50;67.80
9658;DHT22;4867;48.112;11.622;2023-06-14T12:05:24;23.20;67.90
9658;DHT22;4867;48.112;11.622;2023-06-14T12:07:59;23.20;68.30
9658;DHT22;4867;48.112;11.622;2023-06-14T12:10:28;23.50;68.90
9658;DHT22;4867;48.112;11.622;2023-06-14T12:12:58;23.60;68.50
9658;DHT22;4867;48.112;11.622;2023-06-14T12:15:29;23.80;68.20
9658;DHT22;4867;48.112;11.622;2023-06-14T12:17:57;23.70;68.00
9658;DHT22;4867;48.112;11.622;2023-06-14T12:20:29;23.40;68.00
9658;DHT22;4867;48.112;11.622;2023-06-14T12:22:59;23.40;67.80
9658;DHT22;4867;48.112;11.622;2023-06-14T12:25:33;23.60;68.00
9658;DHT22;4867;48.112;11.622;2023-06-14T12:28:06;23.60;67.00
9658;DHT22;4867;48.112;11.622;2023-06-14T12:30:36;23.70;67.00
9658;DHT22;4867;48.112;11.622;2023-06-14T12:33:04;23.70;66.70
9658;DHT22;4867;48.112;11.622;2023-06-14T12:35:33;23.70;65.80
9658;DHT22;4867;48.112;11.622;2023-06-14T12:38:00;23.80;66.90
9658;DHT22;4867;48.112;11.622;2023-06-14T12:40:28;23.90;65.10
9658;DHT22;4867;48.112;11.622;2023-06-14T12:42:55;24.00;66.00
9658;DHT22;4867;48.112;11.622;2023-06-14T12:45:22;24.10;63.70
9658;DHT22;4867;48.112;11.622;2023-06-14T12:47:50;24.10;64.60
9658;DHT22;4867;48.112;11.622;2023-06-14T12:50:19;24.40;66.00
9658;DHT22;4867;48.112;11.622;2023-06-14T12:52:48;24.50;63.50
9658;DHT22;4867;48.112;11.622;2023-06-14T12:55:16;24.40;63.20
9658;DHT22;4867;48.112;11.622;2023-06-14T12:57:43;24.30;64.00
9658;DHT22;4867;48.112;11.622;2023-06-14T13:00:11;24.40;66.10
9658;DHT22;4867;48.112;11.622;2023-06-14T13:02:40;24.70;64.60
9658;DHT22;4867;48.112;11.622;2023-06-14T13:05:07;24.60;64.20
9658;DHT22;4867;48.112;11.622;2023-06-14T13:07:35;24.50;63.00
9658;DHT22;4867;48.112;11.622;2023-06-14T13:10:03;24.30;63.50
9658;DHT22;4867;48.112;11.622;2023-06-14T13:12:30;24.00;63.50
9658;DHT22;4867;48.112;11.622;2023-06-14T13:14:57;23.70;64.00
9658;DHT22;4867;48.112;11.622;2023-06-14T13:17:25;23.50;63.60
9658;DHT22;4867;48.112;11.622;2023-06-14T13:19:52;23.70;62.90
9658;DHT22;4867;48.112;11.622;2023-06-14T13:22:20;23.80;62.70
9658;DHT22;4867;48.112;11.622;2023-06-14T13:24:47;23.90;63.50
9658;DHT22;4867;48.112;11.622;2023-06-14T13:27:15;24.10;62.50
9658;DHT22;4867;48.112;11.622;2023-06-14T13:29:42;24.40;63.10
9658;DHT22;4867;48.112;11.622;2023-06-14T13:32:10;24.50;62.50
9658;DHT22;4867;48.112;11.622;2023-06-14T13:34:37;24.60;62.20
9658;DHT22;4867;48.112;11.622;2023-06-14T13:37:04;24.60;62.50
9658;DHT22;4867;48.112;11.622;2023-06-14T13:39:32;24.60;62.10
9658;DHT22;4867;48.112;11.622;2023-06-14T13:41:59;24.60;60.90
9658;DHT22;4867;48.112;11.622;2023-06-14T13:44:27;24.60;61.40
9658;DHT22;4867;48.112;11.622;2023-06-14T13:46:54;24.60;61.50
9658;DHT22;4867;48.112;11.622;2023-06-14T13:49:21;24.70;61.70
9658;DHT22;4867;48.112;11.622;2023-06-14T13:51:48;24.80;61.50
9658;DHT22;4867;48.112;11.622;2023-06-14T13:54:19;24.90;60.80
9658;DHT22;4867;48.112;11.622;2023-06-14T13:56:47;25.20;61.10
9658;DHT22;4867;48.112;11.622;2023-06-14T13:59:15;25.30;60.50
9658;DHT22;4867;48.112;11.622;2023-06-14T14:01:43;25.20;59.30
9658;DHT22;4867;48.112;11.622;2023-06-14T14:04:11;25.10;59.20
9658;DHT22;4867;48.112;11.622;2023-06-14T14:06:38;25.00;59.40
9658;DHT22;4867;48.112;11.622;2023-06-14T14:09:06;25.10;59.60
9658;DHT22;4867;48.112;11.622;2023-06-14T14:11:34;25.00;60.10
9658;DHT22;4867;48.112;11.622;2023-06-14T14:14:01;25.00;58.70
9658;DHT22;4867;48.112;11.622;2023-06-14T14:16:29;24.80;58.50
9658;DHT22;4867;48.112;11.622;2023-06-14T14:18:57;24.90;59.00
9658;DHT22;4867;48.112;11.622;2023-06-14T14:21:25;24.90;58.50
9658;DHT22;4867;48.112;11.622;2023-06-14T14:23:52;24.90;58.40
9658;DHT22;4867;48.112;11.622;2023-06-14T14:26:20;25.00;58.60
9658;DHT22;4867;48.112;11.622;2023-06-14T14:28:47;25.10;58.60
9658;DHT22;4867;48.112;11.622;2023-06-14T14:31:15;25.10;58.60
9658;DHT22;4867;48.112;11.622;2023-06-14T14:33:42;24.90;58.60
9658;DHT22;4867;48.112;11.622;2023-06-14T14:36:09;25.00;58.50
9658;DHT22;4867;48.112;11.622;2023-06-14T14:38:37;25.10;58.20
9658;DHT22;4867;48.112;11.622;2023-06-14T14:41:04;25.10;58.80
9658;DHT22;4867;48.112;11.622;2023-06-14T14:43:32;25.00;58.10
9658;DHT22;4867;48.112;11.622;2023-06-14T14:45:59;25.00;58.60
9658;DHT22;4867;48.112;11.622;2023-06-14T14:48:27;25.00;58.60
9658;DHT22;4867;48.112;11.622;2023-06-14T14:50:54;24.90;58.30
9658;DHT22;4867;48.112;11.622;2023-06-14T14:53:21;24.80;59.60
9658;DHT22;4867;48.112;11.622;2023-06-14T14:55:49;24.70;59.70
9658;DHT22;4867;48.112;11.622;2023-06-14T14:58:16;24.80;59.60
9658;DHT22;4867;48.112;11.622;2023-06-14T15:00:45;24.80;60.40
9658;DHT22;4867;48.112;11.622;2023-06-14T15:03:13;24.80;60.40
9658;DHT22;4867;48.112;11.622;2023-06-14T15:05:41;24.70;61.00
9658;DHT22;4867;48.112;11.622;2023-06-14T15:08:08;24.80;61.20
9658;DHT22;4867;48.112;11.622;2023-06-14T15:10:39;24.80;60.50
9658;DHT22;4867;48.112;11.622;2023-06-14T15:13:08;24.80;59.80
9658;DHT22;4867;48.112;11.622;2023-06-14T15:15:36;24.70;59.90
9658;DHT22;4867;48.112;11.622;2023-06-14T15:18:04;24.70;59.80
9658;DHT22;4867;48.112;11.622;2023-06-14T15:20:31;24.70;59.70
9658;DHT22;4867;48.112;11.622;2023-06-14T15:22:59;24.80;60.20
9658;DHT22;4867;48.112;11.622;2023-06-14T15:25:29;24.70;59.60
9658;DHT22;4867;48.112;11.622;2023-06-14T15:27:56;24.70;60.20
9658;DHT22;4867;48.112;11.622;2023-06-14T15:30:24;24.70;59.60
9658;DHT22;4867;48.112;11.622;2023-06-14T15:32:51;24.70;58.80
9658;DHT22;4867;48.112;11.622;2023-06-14T15:35:18;24.60;59.10
9658;DHT22;4867;48.112;11.622;2023-06-14T15:37:47;24.70;59.50
9658;DHT22;4867;48.112;11.622;2023-06-14T15:40:15;24.80;59.40
9658;DHT22;4867;48.112;11.622;2023-06-14T15:42:43;24.90;59.60
9658;DHT22;4867;48.112;11.622;2023-06-14T15:45:11;24.90;59.20
9658;DHT22;4867;48.112;11.622;2023-06-14T15:47:38;25.20;59.20
9658;DHT22;4867;48.112;11.622;2023-06-14T15:50:06;25.40;60.30
9658;DHT22;4867;48.112;11.622;2023-06-14T15:52:37;25.60;60.00
9658;DHT22;4867;48.112;11.622;2023-06-14T15:55:04;25.80;59.60
9658;DHT22;4867;48.112;11.622;2023-06-14T15:57:32;26.30;59.50
9658;DHT22;4867;48.112;11.622;2023-06-14T15:59:59;26.70;60.00
9658;DHT22;4867;48.112;11.622;2023-06-14T16:02:27;26.70;59.50
9658;DHT22;4867;48.112;11.622;2023-06-14T16:04:54;27.10;59.80
9658;DHT22;4867;48.112;11.622;2023-06-14T16:07:22;27.50;59.30
9658;DHT22;4867;48.112;11.622;2023-06-14T16:09:49;27.80;58.40
9658;DHT22;4867;48.112;11.622;2023-06-14T16:12:16;28.10;58.40
9658;DHT22;4867;48.112;11.622;2023-06-14T16:14:44;28.30;58.20
9658;DHT22;4867;48.112;11.622;2023-06-14T16:17:12;28.40;57.00
9658;DHT22;4867;48.112;11.622;2023-06-14T16:19:39;28.40;57.00
9658;DHT22;4867;48.112;11.622;2023-06-14T16:22:07;28.90;56.60
9658;DHT22;4867;48.112;11.622;2023-06-14T16:24:34;28.90;56.30
9658;DHT22;4867;48.112;11.622;2023-06-14T16:27:02;29.10;56.90
9658;DHT22;4867;48.112;11.622;2023-06-14T16:29:31;29.50;56.10
9658;DHT22;4867;48.112;11.622;2023-06-14T16:31:59;29.60;54.80